sensor_id;sensor_type;location;lat;lon;timestamp;temperature;humidity
1956;DHT22;978;48.314;11.562;2022-08-18T00:00:04;22.90;83.90
1956;DHT22;978;48.314;11.562;2022-08-18T00:02:33;22.90;84.00
1956;DHT22;978;48.314;11.562;2022-08-18T00:05:02;22.90;83.90
1956;DHT22;978;48.314;11.562;2022-08-18T00:07:31;22.90;84.00
1956;DHT22;978;48.314;11.562;2022-08-18T00:10:00;22.90;84.00
1956;DHT22;978;48.314;11.562;2022-08-18T00:12:30;22.90;84.50
1956;DHT22;978;48.314;11.562;2022-08-18T00:14:58;22.90;84.00
1956;DHT22;978;48.314;11.562;2022-08-18T00:17:32;22.90;83.90
1956;DHT22;978;48.314;11.562;2022-08-18T00:19:59;22.90;84.00
1956;DHT22;978;48.314;11.562;2022-08-18T00:22:26;22.90;83.90
1956;DHT22;978;48.314;11.562;2022-08-18T00:24:54;22.90;84.00
1956;DHT22;978;48.314;11.562;2022-08-18T00:27:23;22.90;83.90
1956;DHT22;978;48.314;11.562;2022-08-18T00:29:52;22.90;84.00
1956;DHT22;978;48.314;11.562;2022-08-18T00:32:22;22.90;84.00
1956;DHT22;978;48.314;11.562;2022-08-18T00:34:51;22.90;84.10
1956;DHT22;978;48.314;11.562;2022-08-18T00:37:18;22.90;84.00
1956;DHT22;978;48.314;11.562;2022-08-18T00:39:45;22.90;84.00
1956;DHT22;978;48.314;11.562;2022-08-18T00:42:14;22.90;84.00
1956;DHT22;978;48.314;11.562;2022-08-18T00:44:41;22.90;84.00
1956;DHT22;978;48.314;11.562;2022-08-18T00:47:08;22.90;84.00
1956;DHT22;978;48.314;11.562;2022-08-18T00:49:36;22.90;84.00
1956;DHT22;978;48.314;11.562;2022-08-18T00:52:06;22.90;84.00
1956;DHT22;978;48.314;11.562;2022-08-18T00:54:37;22.90;84.00
1956;DHT22;978;48.314;11.562;2022-08-18T00:57:07;22.90;84.00
1956;DHT22;978;48.314;11.562;2022-08-18T00:59:40;22.90;84.00
1956;DHT22;978;48.314;11.562;2022-08-18T01:02:13;22.90;84.00
1956;DHT22;978;48.314;11.562;2022-08-18T01:04:45;22.90;84.00
1956;DHT22;978;48.314;11.562;2022-08-18T01:07:19;22.90;84.00
1956;DHT22;978;48.314;11.562;2022-08-18T01:09:46;22.90;84.00
1956;DHT22;978;48.314;11.562;2022-08-18T01:12:13;22.90;84.00
1956;DHT22;978;48.314;11.562;2022-08-18T01:14:41;22.90;84.00
1956;DHT22;978;48.314;11.562;2022-08-18T01:17:08;22.90;84.00
1956;DHT22;978;48.314;11.562;2022-08-18T01:19:53;22.90;84.00
1956;DHT22;978;48.314;11.562;2022-08-18T01:22:49;22.90;84.00
1956;DHT22;978;48.314;11.562;2022-08-18T01:25:19;22.90;84.00
1956;DHT22;978;48.314;11.562;2022-08-18T01:28:06;22.90;84.00
1956;DHT22;978;48.314;11.562;2022-08-18T01:30:44;22.90;84.00
1956;DHT22;978;48.314;11.562;2022-08-18T01:33:12;22.90;84.00
1956;DHT22;978;48.314;11.562;2022-08-18T01:35:42;22.90;84.00
1956;DHT22;978;48.314;11.562;2022-08-18T01:38:18;22.90;84.00
1956;DHT22;978;48.314;11.562;2022-08-18T01:40:46;22.90;84.00
1956;DHT22;978;48.314;11.562;2022-08-18T01:43:14;22.90;84.10
1956;DHT22;978;48.314;11.562;2022-08-18T01:45:43;22.90;84.00
1956;DHT22;978;48.314;11.562;2022-08-18T01:48:10;22.90;84.00
1956;DHT22;978;48.314;11.562;2022-08-18T01:50:38;22.90;84.60
1956;DHT22;978;48.314;11.562;2022-08-18T01:53:07;22.90;84.00
1956;DHT22;978;48.314;11.562;2022-08-18T01:55:40;22.90;84.00
1956;DHT22;978;48.314;11.562;2022-08-18T01:58:12;22.90;84.00
1956;DHT22;978;48.314;11.562;2022-08-18T02:00:40;22.90;84.00
1956;DHT22;978;48.314;11.562;2022-08-18T02:03:11;22.90;84.00
1956;DHT22;978;48.314;11.562;2022-08-18T02:05:42;22.90;84.00
1956;DHT22;978;48.314;11.562;2022-08-18T02:08:11;22.90;84.00
1956;DHT22;978;48.314;11.562;2022-08-18T02:10:42;22.90;84.00
1956;DHT22;978;48.314;11.562;2022-08-18T02:13:12;22.90;84.00
1956;DHT22;978;48.314;11.562;2022-08-18T02:15:41;22.90;84.00
1956;DHT22;978;48.314;11.562;2022-08-18T02:18:13;22.90;84.00
1956;DHT22;978;48.314;11.562;2022-08-18T02:20:41;22.90;84.10
1956;DHT22;978;48.314;11.562;2022-08-18T02:23:09;22.90;84.00
1956;DHT22;978;48.314;11.562;2022-08-18T02:25:37;22.90;84.00
1956;DHT22;978;48.314;11.562;2022-08-18T02:28:05;22.90;84.00
1956;DHT22;978;48.314;11.562;2022-08-18T02:30:33;22.90;84.10
1956;DHT22;978;48.314;11.562;2022-08-18T02:33:01;22.90;84.10
1956;DHT22;978;48.314;11.562;2022-08-18T02:35:29;22.90;84.00
1956;DHT22;978;48.314;11.562;2022-08-18T02:37:57;22.90;84.10
1956;DHT22;978;48.314;11.562;2022-08-18T02:40:24;22.80;84.00
1956;DHT22;978;48.314;11.562;2022-08-18T02:42:51;22.90;84.10
1956;DHT22;978;48.314;11.562;2022-08-18T02:45:20;22.90;84.10
1956;DHT22;978;48.314;11.562;2022-08-18T02:47:51;22.80;84.00
1956;DHT22;978;48.314;11.562;2022-08-18T02:50:18;22.90;84.10
1956;DHT22;978;48.314;11.562;2022-08-18T02:52:46;22.90;84.10
1956;DHT22;978;48.314;11.562;2022-08-18T02:55:15;22.90;84.10
1956;DHT22;978;48.314;11.562;2022-08-18T02:57:45;22.90;84.10
1956;DHT22;978;48.314;11.562;2022-08-18T03:00:14;22.90;84.10
1956;DHT22;978;48.314;11.562;2022-08-18T03:02:50;22.80;84.00
1956;DHT22;978;48.314;11.562;2022-08-18T03:05:19;22.90;84.10
1956;DHT22;978;48.314;11.562;2022-08-18T03:07:47;22.90;84.10
1956;DHT22;978;48.314;11.562;2022-08-18T03:10:16;22.90;84.10
1956;DHT22;978;48.314;11.562;2022-08-18T03:12:44;22.90;84.10
1956;DHT22;978;48.314;11.562;2022-08-18T03:15:12;22.90;84.10
1956;DHT22;978;48.314;11.562;2022-08-18T03:17:40;22.90;84.10
1956;DHT22;978;48.314;11.562;2022-08-18T03:20:10;22.80;84.00
1956;DHT22;978;48.314;11.562;2022-08-18T03:22:40;22.90;84.10
1956;DHT22;978;48.314;11.562;2022-08-18T03:25:08;22.90;84.10
1956;DHT22;978;48.314;11.562;2022-08-18T03:27:35;22.90;84.10
1956;DHT22;978;48.314;11.562;2022-08-18T03:30:02;22.90;84.10
1956;DHT22;978;48.314;11.562;2022-08-18T03:32:29;22.90;84.10
1956;DHT22;978;48.314;11.562;2022-08-18T03:34:56;22.90;84.10
1956;DHT22;978;48.314;11.562;2022-08-18T03:37:25;22.80;84.00
1956;DHT22;978;48.314;11.562;2022-08-18T03:39:52;22.90;84.00
1956;DHT22;978;48.314;11.562;2022-08-18T03:42:20;22.90;84.10
1956;DHT22;978;48.314;11.562;2022-08-18T03:44:48;22.90;84.10
1956;DHT22;978;48.314;11.562;2022-08-18T03:47:16;22.90;84.10
1956;DHT22;978;48.314;11.562;2022-08-18T03:49:46;22.90;84.10
1956;DHT22;978;48.314;11.562;2022-08-18T03:52:14;22.90;84.10
1956;DHT22;978;48.314;11.562;2022-08-18T03:54:44;22.90;84.10
1956;DHT22;978;48.314;11.562;2022-08-18T03:57:11;22.90;84.10
1956;DHT22;978;48.314;11.562;2022-08-18T03:59:39;22.90;84.10
1956;DHT22;978;48.314;11.562;2022-08-18T04:02:08;22.90;84.10
1956;DHT22;978;48.314;11.562;2022-08-18T04:04:35;22.90;84.10
1956;DHT22;978;48.314;11.562;2022-08-18T04:07:06;22.90;84.10
1956;DHT22;978;48.314;11.562;2022-08-18T04:09:36;22.90;84.10
1956;DHT22;978;48.314;11.562;2022-08-18T04:12:06;22.90;84.10
1956;DHT22;978;48.314;11.562;2022-08-18T04:14:37;22.90;84.10
1956;DHT22;978;48.314;11.562;2022-08-18T04:17:04;22.90;84.70
1956;DHT22;978;48.314;11.562;2022-08-18T04:19:31;22.90;84.10
1956;DHT22;978;48.314;11.562;2022-08-18T04:21:59;22.90;84.10
1956;DHT22;978;48.314;11.562;2022-08-18T04:24:28;22.90;84.10
1956;DHT22;978;48.314;11.562;2022-08-18T04:26:57;22.80;84.10
1956;DHT22;978;48.314;11.562;2022-08-18T04:29:26;22.90;84.10
1956;DHT22;978;48.314;11.562;2022-08-18T04:31:53;22.90;84.10
1956;DHT22;978;48.314;11.562;2022-08-18T04:34:22;22.90;84.10
1956;DHT22;978;48.314;11.562;2022-08-18T04:36:51;22.90;84.10
1956;DHT22;978;48.314;11.562;2022-08-18T04:39:20;22.90;84.10
1956;DHT22;978;48.314;11.562;2022-08-18T04:41:50;22.90;84.10
1956;DHT22;978;48.314;11.562;2022-08-18T04:44:19;22.90;84.10
1956;DHT22;978;48.314;11.562;2022-08-18T04:46:51;22.90;84.10
1956;DHT22;978;48.314;11.562;2022-08-18T04:49:21;22.90;84.10
1956;DHT22;978;48.314;11.562;2022-08-18T04:51:53;22.80;84.10
1956;DHT22;978;48.314;11.562;2022-08-18T04:54:53;22.90;84.10
1956;DHT22;978;48.314;11.562;2022-08-18T04:57:21;22.90;84.10
1956;DHT22;978;48.314;11.562;2022-08-18T04:59:50;22.90;84.10
1956;DHT22;978;48.314;11.562;2022-08-18T05:02:21;22.90;84.10
1956;DHT22;978;48.314;11.562;2022-08-18T05:04:49;22.90;84.10
1956;DHT22;978;48.314;11.562;2022-08-18T05:07:20;22.90;84.10
1956;DHT22;978;48.314;11.562;2022-08-18T05:09:49;22.90;84.10
1956;DHT22;978;48.314;11.562;2022-08-18T05:12:17;22.90;84.10
1956;DHT22;978;48.314;11.562;2022-08-18T05:14:44;22.80;84.60
1956;DHT22;978;48.314;11.562;2022-08-18T05:17:14;22.90;84.10
1956;DHT22;978;48.314;11.562;2022-08-18T05:19:45;22.90;84.10
1956;DHT22;978;48.314;11.562;2022-08-18T05:22:14;22.90;84.10
1956;DHT22;978;48.314;11.562;2022-08-18T05:24:44;22.90;84.10
1956;DHT22;978;48.314;11.562;2022-08-18T05:27:11;22.90;84.10
1956;DHT22;978;48.314;11.562;2022-08-18T05:29:38;22.90;84.10
1956;DHT22;978;48.314;11.562;2022-08-18T05:32:05;22.90;84.10
1956;DHT22;978;48.314;11.562;2022-08-18T05:34:33;22.90;84.10
1956;DHT22;978;48.314;11.562;2022-08-18T05:37:14;22.90;84.10
1956;DHT22;978;48.314;11.562;2022-08-18T05:39:55;22.90;84.10
1956;DHT22;978;48.314;11.562;2022-08-18T05:42:25;22.90;84.10
1956;DHT22;978;48.314;11.562;2022-08-18T05:44:54;22.90;84.10
1956;DHT22;978;48.314;11.562;2022-08-18T05:47:25;22.90;84.10
1956;DHT22;978;48.314;11.562;2022-08-18T05:49:56;22.90;84.10
1956;DHT22;978;48.314;11.562;2022-08-18T05:52:30;22.90;84.10
1956;DHT22;978;48.314;11.562;2022-08-18T05:55:02;22.90;84.10
1956;DHT22;978;48.314;11.562;2022-08-18T05:57:50;22.90;84.10
1956;DHT22;978;48.314;11.562;2022-08-18T06:00:19;22.90;84.10
1956;DHT22;978;48.314;11.562;2022-08-18T06:02:54;22.90;84.10
1956;DHT22;978;48.314;11.562;2022-08-18T06:05:27;22.90;84.10
1956;DHT22;978;48.314;11.562;2022-08-18T06:07:59;22.90;84.10
1956;DHT22;978;48.314;11.562;2022-08-18T06:10:30;22.90;84.10
1956;DHT22;978;48.314;11.562;2022-08-18T06:12:59;22.90;84.10
1956;DHT22;978;48.314;11.562;2022-08-18T06:15:31;22.90;84.10
1956;DHT22;978;48.314;11.562;2022-08-18T06:18:21;22.90;84.10
1956;DHT22;978;48.314;11.562;2022-08-18T06:24:09;22.90;84.10
1956;DHT22;978;48.314;11.562;2022-08-18T06:26:42;22.90;84.10
1956;DHT22;978;48.314;11.562;2022-08-18T06:29:26;22.90;84.10
1956;DHT22;978;48.314;11.562;2022-08-18T06:32:03;22.80;84.10
1956;DHT22;978;48.314;11.562;2022-08-18T06:34:39;22.80;84.10
1956;DHT22;978;48.314;11.562;2022-08-18T06:37:15;22.90;84.20
1956;DHT22;978;48.314;11.562;2022-08-18T06:39:47;22.90;84.20
1956;DHT22;978;48.314;11.562;2022-08-18T06:42:16;22.90;84.20
1956;DHT22;978;48.314;11.562;2022-08-18T06:44:49;22.80;84.10
1956;DHT22;978;48.314;11.562;2022-08-18T06:47:23;22.80;84.10
1956;DHT22;978;48.314;11.562;2022-08-18T06:50:03;22.90;84.20
1956;DHT22;978;48.314;11.562;2022-08-18T06:52:33;22.90;84.10
1956;DHT22;978;48.314;11.562;2022-08-18T06:55:07;22.90;84.20
1956;DHT22;978;48.314;11.562;2022-08-18T06:57:37;22.90;84.10
1956;DHT22;978;48.314;11.562;2022-08-18T07:00:10;22.90;84.20
1956;DHT22;978;48.314;11.562;2022-08-18T07:02:51;22.90;84.20
1956;DHT22;978;48.314;11.562;2022-08-18T07:05:27;22.90;84.20
1956;DHT22;978;48.314;11.562;2022-08-18T07:08:15;22.90;84.20
1956;DHT22;978;48.314;11.562;2022-08-18T07:10:46;22.90;84.20
1956;DHT22;978;48.314;11.562;2022-08-18T07:13:23;22.90;84.90
1956;DHT22;978;48.314;11.562;2022-08-18T07:15:52;22.90;84.30
1956;DHT22;978;48.314;11.562;2022-08-18T07:18:25;22.90;84.30
1956;DHT22;978;48.314;11.562;2022-08-18T07:20:55;22.90;84.40
1956;DHT22;978;48.314;11.562;2022-08-18T07:23:29;22.80;84.40
1956;DHT22;978;48.314;11.562;2022-08-18T07:26:06;22.90;84.50
1956;DHT22;978;48.314;11.562;2022-08-18T07:28:38;22.90;84.40
1956;DHT22;978;48.314;11.562;2022-08-18T07:31:16;22.80;84.50
1956;DHT22;978;48.314;11.562;2022-08-18T07:33:50;22.90;84.50
1956;DHT22;978;48.314;11.562;2022-08-18T07:36:19;22.90;84.50
1956;DHT22;978;48.314;11.562;2022-08-18T07:38:55;22.90;84.60
1956;DHT22;978;48.314;11.562;2022-08-18T07:41:29;22.90;84.60
1956;DHT22;978;48.314;11.562;2022-08-18T07:44:06;22.90;84.70
1956;DHT22;978;48.314;11.562;2022-08-18T07:46:41;22.90;84.70
1956;DHT22;978;48.314;11.562;2022-08-18T07:49:11;22.90;84.70
1956;DHT22;978;48.314;11.562;2022-08-18T07:51:46;22.90;84.70
1956;DHT22;978;48.314;11.562;2022-08-18T07:54:21;22.90;84.80
1956;DHT22;978;48.314;11.562;2022-08-18T07:57:01;22.90;84.80
1956;DHT22;978;48.314;11.562;2022-08-18T07:59:38;22.90;84.80
1956;DHT22;978;48.314;11.562;2022-08-18T08:02:21;22.90;84.90
1956;DHT22;978;48.314;11.562;2022-08-18T08:04:59;22.90;84.90
1956;DHT22;978;48.314;11.562;2022-08-18T08:07:30;22.90;84.90
1956;DHT22;978;48.314;11.562;2022-08-18T08:12:56;22.90;85.00
1956;DHT22;978;48.314;11.562;2022-08-18T08:15:36;22.90;85.00
1956;DHT22;978;48.314;11.562;2022-08-18T08:18:11;22.90;85.60
1956;DHT22;978;48.314;11.562;2022-08-18T08:20:46;22.90;85.00
1956;DHT22;978;48.314;11.562;2022-08-18T08:23:23;22.90;85.10
1956;DHT22;978;48.314;11.562;2022-08-18T08:26:01;22.90;85.10
1956;DHT22;978;48.314;11.562;2022-08-18T08:28:41;22.90;85.10
1956;DHT22;978;48.314;11.562;2022-08-18T08:31:14;22.90;85.20
1956;DHT22;978;48.314;11.562;2022-08-18T08:33:49;22.90;85.20
1956;DHT22;978;48.314;11.562;2022-08-18T08:36:22;22.90;85.20
1956;DHT22;978;48.314;11.562;2022-08-18T08:38:53;22.90;85.20
1956;DHT22;978;48.314;11.562;2022-08-18T08:41:23;22.90;85.30
1956;DHT22;978;48.314;11.562;2022-08-18T08:44:02;22.90;85.30
1956;DHT22;978;48.314;11.562;2022-08-18T08:46:40;22.90;85.30
1956;DHT22;978;48.314;11.562;2022-08-18T08:49:13;22.90;85.30
1956;DHT22;978;48.314;11.562;2022-08-18T08:51:45;22.90;85.30
1956;DHT22;978;48.314;11.562;2022-08-18T08:54:20;22.90;85.40
1956;DHT22;978;48.314;11.562;2022-08-18T08:56:50;22.90;85.30
1956;DHT22;978;48.314;11.562;2022-08-18T08:59:21;22.90;85.40
1956;DHT22;978;48.314;11.562;2022-08-18T09:01:55;22.90;85.40
1956;DHT22;978;48.314;11.562;2022-08-18T09:04:41;22.90;85.40
1956;DHT22;978;48.314;11.562;2022-08-18T09:07:24;22.90;86.00
1956;DHT22;978;48.314;11.562;2022-08-18T09:10:18;22.90;85.50
1956;DHT22;978;48.314;11.562;2022-08-18T09:13:01;22.90;85.50
1956;DHT22;978;48.314;11.562;2022-08-18T09:15:48;22.90;85.50
1956;DHT22;978;48.314;11.562;2022-08-18T09:18:41;22.90;85.50
1956;DHT22;978;48.314;11.562;2022-08-18T09:21:31;22.80;85.50
1956;DHT22;978;48.314;11.562;2022-08-18T09:24:07;22.90;85.50
1956;DHT22;978;48.314;11.562;2022-08-18T09:26:49;22.90;85.50
1956;DHT22;978;48.314;11.562;2022-08-18T09:29:22;22.90;85.50
1956;DHT22;978;48.314;11.562;2022-08-18T09:35:02;22.90;85.60
1956;DHT22;978;48.314;11.562;2022-08-18T09:37:45;22.90;85.60
1956;DHT22;978;48.314;11.562;2022-08-18T09:40:35;22.90;85.50
1956;DHT22;978;48.314;11.562;2022-08-18T09:43:32;22.90;85.60
1956;DHT22;978;48.314;11.562;2022-08-18T09:46:03;22.90;85.60
1956;DHT22;978;48.314;11.562;2022-08-18T09:48:33;22.90;85.60
1956;DHT22;978;48.314;11.562;2022-08-18T09:51:34;22.90;85.60
1956;DHT22;978;48.314;11.562;2022-08-18T09:54:13;22.90;85.60
1956;DHT22;978;48.314;11.562;2022-08-18T09:57:19;22.90;85.60
1956;DHT22;978;48.314;11.562;2022-08-18T09:59:56;22.90;85.60
1956;DHT22;978;48.314;11.562;2022-08-18T10:03:00;22.90;85.60
1956;DHT22;978;48.314;11.562;2022-08-18T10:05:30;22.90;85.70
1956;DHT22;978;48.314;11.562;2022-08-18T10:11:16;22.90;85.70
1956;DHT22;978;48.314;11.562;2022-08-18T10:13:53;22.90;85.70
1956;DHT22;978;48.314;11.562;2022-08-18T10:16:29;22.90;85.70
1956;DHT22;978;48.314;11.562;2022-08-18T10:19:05;22.90;85.70
1956;DHT22;978;48.314;11.562;2022-08-18T10:24:40;22.90;85.70
1956;DHT22;978;48.314;11.562;2022-08-18T10:27:45;22.90;85.80
1956;DHT22;978;48.314;11.562;2022-08-18T10:34:00;22.90;85.80
1956;DHT22;978;48.314;11.562;2022-08-18T10:39:22;22.90;85.80
1956;DHT22;978;48.314;11.562;2022-08-18T10:42:03;22.90;85.80
1956;DHT22;978;48.314;11.562;2022-08-18T10:44:39;22.90;86.30
1956;DHT22;978;48.314;11.562;2022-08-18T10:47:08;22.90;85.80
1956;DHT22;978;48.314;11.562;2022-08-18T10:49:37;22.90;85.80
1956;DHT22;978;48.314;11.562;2022-08-18T10:52:27;22.90;85.80
1956;DHT22;978;48.314;11.562;2022-08-18T10:55:12;22.90;85.80
1956;DHT22;978;48.314;11.562;2022-08-18T11:00:53;22.90;85.80
1956;DHT22;978;48.314;11.562;2022-08-18T11:03:48;22.90;85.80
1956;DHT22;978;48.314;11.562;2022-08-18T11:06:22;22.90;85.80
1956;DHT22;978;48.314;11.562;2022-08-18T11:08:53;22.90;85.80
1956;DHT22;978;48.314;11.562;2022-08-18T11:11:27;22.90;85.80
1956;DHT22;978;48.314;11.562;2022-08-18T11:14:13;22.90;85.80
1956;DHT22;978;48.314;11.562;2022-08-18T11:16:53;22.80;85.80
1956;DHT22;978;48.314;11.562;2022-08-18T11:19:24;22.80;85.80
1956;DHT22;978;48.314;11.562;2022-08-18T11:21:52;22.80;85.80
1956;DHT22;978;48.314;11.562;2022-08-18T11:24:23;22.90;85.80
1956;DHT22;978;48.314;11.562;2022-08-18T11:26:52;22.90;85.80
1956;DHT22;978;48.314;11.562;2022-08-18T11:29:28;22.90;85.80
1956;DHT22;978;48.314;11.562;2022-08-18T11:32:01;22.90;85.80
1956;DHT22;978;48.314;11.562;2022-08-18T11:34:35;22.90;85.80
1956;DHT22;978;48.314;11.562;2022-08-18T11:37:07;22.80;85.70
1956;DHT22;978;48.314;11.562;2022-08-18T11:39:41;22.90;85.80
1956;DHT22;978;48.314;11.562;2022-08-18T11:42:14;22.90;85.80
1956;DHT22;978;48.314;11.562;2022-08-18T11:44:42;22.90;85.80
1956;DHT22;978;48.314;11.562;2022-08-18T11:47:15;22.90;85.80
1956;DHT22;978;48.314;11.562;2022-08-18T11:49:56;22.90;85.80
1956;DHT22;978;48.314;11.562;2022-08-18T11:52:25;22.90;85.80
1956;DHT22;978;48.314;11.562;2022-08-18T11:54:58;22.90;85.80
1956;DHT22;978;48.314;11.562;2022-08-18T11:57:28;22.80;85.70
1956;DHT22;978;48.314;11.562;2022-08-18T11:59:55;22.90;85.80
1956;DHT22;978;48.314;11.562;2022-08-18T12:02:24;22.90;85.80
1956;DHT22;978;48.314;11.562;2022-08-18T12:04:53;22.90;85.80
1956;DHT22;978;48.314;11.562;2022-08-18T12:07:27;22.90;85.80
1956;DHT22;978;48.314;11.562;2022-08-18T12:10:13;22.90;85.80
1956;DHT22;978;48.314;11.562;2022-08-18T12:12:44;22.90;85.80
1956;DHT22;978;48.314;11.562;2022-08-18T12:15:29;22.90;85.90
1956;DHT22;978;48.314;11.562;2022-08-18T12:17:57;22.90;85.80
1956;DHT22;978;48.314;11.562;2022-08-18T12:20:24;22.80;85.80
1956;DHT22;978;48.314;11.562;2022-08-18T12:22:55;22.90;85.80
1956;DHT22;978;48.314;11.562;2022-08-18T12:25:22;22.90;85.80
1956;DHT22;978;48.314;11.562;2022-08-18T12:27:50;22.90;85.80
1956;DHT22;978;48.314;11.562;2022-08-18T12:30:17;22.90;85.80
1956;DHT22;978;48.314;11.562;2022-08-18T12:32:45;22.90;85.80
1956;DHT22;978;48.314;11.562;2022-08-18T12:35:15;22.90;85.80
1956;DHT22;978;48.314;11.562;2022-08-18T12:37:44;22.90;85.90
1956;DHT22;978;48.314;11.562;2022-08-18T12:40:11;22.90;85.90
1956;DHT22;978;48.314;11.562;2022-08-18T12:42:38;22.90;85.90
1956;DHT22;978;48.314;11.562;2022-08-18T12:45:07;22.90;85.90
1956;DHT22;978;48.314;11.562;2022-08-18T12:47:37;22.90;85.90
1956;DHT22;978;48.314;11.562;2022-08-18T12:50:06;22.90;85.90
1956;DHT22;978;48.314;11.562;2022-08-18T12:52:34;22.90;85.90
1956;DHT22;978;48.314;11.562;2022-08-18T12:55:01;22.90;85.90
1956;DHT22;978;48.314;11.562;2022-08-18T12:57:28;22.90;85.90
1956;DHT22;978;48.314;11.562;2022-08-18T12:59:55;22.80;85.90
1956;DHT22;978;48.314;11.562;2022-08-18T13:02:23;22.90;85.90
1956;DHT22;978;48.314;11.562;2022-08-18T13:04:51;22.90;85.90
1956;DHT22;978;48.314;11.562;2022-08-18T13:07:19;22.80;85.90
1956;DHT22;978;48.314;11.562;2022-08-18T13:09:48;22.90;85.90
1956;DHT22;978;48.314;11.562;2022-08-18T13:12:17;22.90;85.90
1956;DHT22;978;48.314;11.562;2022-08-18T13:14:46;22.80;85.90
1956;DHT22;978;48.314;11.562;2022-08-18T13:17:14;22.90;85.90
1956;DHT22;978;48.314;11.562;2022-08-18T13:19:41;22.90;85.90
1956;DHT22;978;48.314;11.562;2022-08-18T13:22:08;22.90;86.00
1956;DHT22;978;48.314;11.562;2022-08-18T13:24:36;22.90;85.90
1956;DHT22;978;48.314;11.562;2022-08-18T13:27:04;22.90;85.90
1956;DHT22;978;48.314;11.562;2022-08-18T13:29:31;22.90;85.90
1956;DHT22;978;48.314;11.562;2022-08-18T13:31:58;22.80;85.90
1956;DHT22;978;48.314;11.562;2022-08-18T13:34:25;22.90;85.90
1956;DHT22;978;48.314;11.562;2022-08-18T13:36:54;22.90;85.90
1956;DHT22;978;48.314;11.562;2022-08-18T13:39:23;22.90;85.80
1956;DHT22;978;48.314;11.562;2022-08-18T13:41:53;22.90;85.80
1956;DHT22;978;48.314;11.562;2022-08-18T13:44:22;22.90;85.80
1956;DHT22;978;48.314;11.562;2022-08-18T13:46:51;22.90;85.80
1956;DHT22;978;48.314;11.562;2022-08-18T13:49:22;22.90;85.80
1956;DHT22;978;48.314;11.562;2022-08-18T13:51:52;22.90;85.80
1956;DHT22;978;48.314;11.562;2022-08-18T13:54:27;22.80;85.80
1956;DHT22;978;48.314;11.562;2022-08-18T13:56:55;22.90;85.80
1956;DHT22;978;48.314;11.562;2022-08-18T13:59:25;22.90;85.80
1956;DHT22;978;48.314;11.562;2022-08-18T14:01:56;22.90;86.20
1956;DHT22;978;48.314;11.562;2022-08-18T14:04:25;22.90;85.80
1956;DHT22;978;48.314;11.562;2022-08-18T14:06:54;22.90;85.80
1956;DHT22;978;48.314;11.562;2022-08-18T14:09:23;22.90;85.80
1956;DHT22;978;48.314;11.562;2022-08-18T14:11:51;22.80;85.70
1956;DHT22;978;48.314;11.562;2022-08-18T14:14:19;22.90;85.80
1956;DHT22;978;48.314;11.562;2022-08-18T14:16:50;22.90;85.80
1956;DHT22;978;48.314;11.562;2022-08-18T14:19:18;22.90;85.70
1956;DHT22;978;48.314;11.562;2022-08-18T14:22:02;22.90;85.70
1956;DHT22;978;48.314;11.562;2022-08-18T14:24:48;22.90;85.80
1956;DHT22;978;48.314;11.562;2022-08-18T14:27:33;22.90;85.80
1956;DHT22;978;48.314;11.562;2022-08-18T14:30:00;22.80;85.70
1956;DHT22;978;48.314;11.562;2022-08-18T14:32:29;22.90;85.70
1956;DHT22;978;48.314;11.562;2022-08-18T14:34:58;22.90;85.70
1956;DHT22;978;48.314;11.562;2022-08-18T14:37:27;22.80;85.60
1956;DHT22;978;48.314;11.562;2022-08-18T14:39:56;22.90;85.70
1956;DHT22;978;48.314;11.562;2022-08-18T14:42:24;22.90;85.70
1956;DHT22;978;48.314;11.562;2022-08-18T14:44:52;22.80;85.60
1956;DHT22;978;48.314;11.562;2022-08-18T14:47:21;22.90;85.70
1956;DHT22;978;48.314;11.562;2022-08-18T14:49:49;22.90;85.70
1956;DHT22;978;48.314;11.562;2022-08-18T14:52:16;22.90;85.70
1956;DHT22;978;48.314;11.562;2022-08-18T14:54:42;22.90;85.70
1956;DHT22;978;48.314;11.562;2022-08-18T14:57:09;22.90;85.70
1956;DHT22;978;48.314;11.562;2022-08-18T14:59:36;22.90;85.60
1956;DHT22;978;48.314;11.562;2022-08-18T15:02:05;22.90;85.70
1956;DHT22;978;48.314;11.562;2022-08-18T15:04:32;22.90;85.60
1956;DHT22;978;48.314;11.562;2022-08-18T15:07:01;22.90;85.60
1956;DHT22;978;48.314;11.562;2022-08-18T15:09:29;22.90;85.60
1956;DHT22;978;48.314;11.562;2022-08-18T15:11:58;22.90;85.60
1956;DHT22;978;48.314;11.562;2022-08-18T15:14:28;22.90;85.60
1956;DHT22;978;48.314;11.562;2022-08-18T15:16:58;22.90;85.60
1956;DHT22;978;48.314;11.562;2022-08-18T15:19:26;22.90;85.60
1956;DHT22;978;48.314;11.562;2022-08-18T15:21:54;22.90;85.60
1956;DHT22;978;48.314;11.562;2022-08-18T15:24:41;22.80;85.60
1956;DHT22;978;48.314;11.562;2022-08-18T15:27:31;22.80;85.60
1956;DHT22;978;48.314;11.562;2022-08-18T15:30:01;22.90;85.60
1956;DHT22;978;48.314;11.562;2022-08-18T15:32:30;22.90;85.60
1956;DHT22;978;48.314;11.562;2022-08-18T15:34:58;22.90;85.60
1956;DHT22;978;48.314;11.562;2022-08-18T15:37:27;22.90;85.60
1956;DHT22;978;48.314;11.562;2022-08-18T15:40:00;22.80;85.60
1956;DHT22;978;48.314;11.562;2022-08-18T15:42:31;22.90;85.60
1956;DHT22;978;48.314;11.562;2022-08-18T15:45:01;22.80;85.60
1956;DHT22;978;48.314;11.562;2022-08-18T15:47:30;22.90;85.60
1956;DHT22;978;48.314;11.562;2022-08-18T15:50:00;22.90;85.60
1956;DHT22;978;48.314;11.562;2022-08-18T15:52:30;22.90;85.60
1956;DHT22;978;48.314;11.562;2022-08-18T15:55:01;22.90;85.60
1956;DHT22;978;48.314;11.562;2022-08-18T15:57:29;22.90;85.60
1956;DHT22;978;48.314;11.562;2022-08-18T15:59:59;22.90;85.60
1956;DHT22;978;48.314;11.562;2022-08-18T16:02:27;22.80;85.60
1956;DHT22;978;48.314;11.562;2022-08-18T16:04:55;22.90;85.60
1956;DHT22;978;48.314;11.562;2022-08-18T16:07:22;22.90;85.60
1956;DHT22;978;48.314;11.562;2022-08-18T16:09:49;22.90;85.60
1956;DHT22;978;48.314;11.562;2022-08-18T16:12:17;22.90;85.60
1956;DHT22;978;48.314;11.562;2022-08-18T16:14:44;22.80;85.50
1956;DHT22;978;48.314;11.562;2022-08-18T16:17:10;22.80;85.50
1956;DHT22;978;48.314;11.562;2022-08-18T16:19:37;22.80;85.50
1956;DHT22;978;48.314;11.562;2022-08-18T16:22:04;22.80;85.50
1956;DHT22;978;48.314;11.562;2022-08-18T16:24:33;22.90;85.50
1956;DHT22;978;48.314;11.562;2022-08-18T16:27:00;22.90;85.50
1956;DHT22;978;48.314;11.562;2022-08-18T16:29:30;22.90;85.50
1956;DHT22;978;48.314;11.562;2022-08-18T16:31:58;22.80;85.50
1956;DHT22;978;48.314;11.562;2022-08-18T16:34:26;22.90;85.50
1956;DHT22;978;48.314;11.562;2022-08-18T16:36:53;22.90;85.50
1956;DHT22;978;48.314;11.562;2022-08-18T16:39:22;22.90;85.50
1956;DHT22;978;48.314;11.562;2022-08-18T16:41:49;22.90;85.50
1956;DHT22;978;48.314;11.562;2022-08-18T16:44:16;22.90;85.50
1956;DHT22;978;48.314;11.562;2022-08-18T16:46:45;22.90;85.50
1956;DHT22;978;48.314;11.562;2022-08-18T16:49:12;22.90;85.50
1956;DHT22;978;48.314;11.562;2022-08-18T16:51:39;22.90;85.50
1956;DHT22;978;48.314;11.562;2022-08-18T16:54:06;22.90;85.50
1956;DHT22;978;48.314;11.562;2022-08-18T16:56:36;22.80;85.50